地図

経路データ

SID SEASON NUMBER BASIN SUBBASIN NAME ISO_TIME NATURE LAT LON WMO_WIND WMO_PRES WMO_AGENCY TRACK_TYPE DIST2LAND LANDFALL IFLAG USA_AGENCY USA_ATCF_ID USA_LAT USA_LON USA_RECORD USA_STATUS USA_WIND USA_PRES USA_SSHS USA_R34_NE USA_R34_SE USA_R34_SW USA_R34_NW USA_R50_NE USA_R50_SE USA_R50_SW USA_R50_NW USA_R64_NE USA_R64_SE USA_R64_SW USA_R64_NW USA_POCI USA_ROCI USA_RMW USA_EYE TOKYO_LAT TOKYO_LON TOKYO_GRADE TOKYO_WIND TOKYO_PRES TOKYO_R50_DIR TOKYO_R50_LONG TOKYO_R50_SHORT TOKYO_R30_DIR TOKYO_R30_LONG TOKYO_R30_SHORT TOKYO_LAND CMA_LAT CMA_LON CMA_CAT CMA_WIND CMA_PRES HKO_LAT HKO_LON HKO_CAT HKO_WIND HKO_PRES NEWDELHI_LAT NEWDELHI_LON NEWDELHI_GRADE NEWDELHI_WIND NEWDELHI_PRES NEWDELHI_CI NEWDELHI_DP NEWDELHI_POCI REUNION_LAT REUNION_LON REUNION_TYPE REUNION_WIND REUNION_PRES REUNION_TNUM REUNION_CI REUNION_RMW REUNION_R34_NE REUNION_R34_SE REUNION_R34_SW REUNION_R34_NW REUNION_R50_NE REUNION_R50_SE REUNION_R50_SW REUNION_R50_NW REUNION_R64_NE REUNION_R64_SE REUNION_R64_SW REUNION_R64_NW BOM_LAT BOM_LON BOM_TYPE BOM_WIND BOM_PRES BOM_TNUM BOM_CI BOM_RMW BOM_R34_NE BOM_R34_SE BOM_R34_SW BOM_R34_NW BOM_R50_NE BOM_R50_SE BOM_R50_SW BOM_R50_NW BOM_R64_NE BOM_R64_SE BOM_R64_SW BOM_R64_NW BOM_ROCI BOM_POCI BOM_EYE BOM_POS_METHOD BOM_PRES_METHOD NADI_LAT NADI_LON NADI_CAT NADI_WIND NADI_PRES WELLINGTON_LAT WELLINGTON_LON WELLINGTON_WIND WELLINGTON_PRES DS824_LAT DS824_LON DS824_STAGE DS824_WIND DS824_PRES TD9636_LAT TD9636_LON TD9636_STAGE TD9636_WIND TD9636_PRES TD9635_LAT TD9635_LON TD9635_WIND TD9635_PRES TD9635_ROCI NEUMANN_LAT NEUMANN_LON NEUMANN_CLASS NEUMANN_WIND NEUMANN_PRES MLC_LAT MLC_LON MLC_CLASS MLC_WIND MLC_PRES USA_GUST BOM_GUST BOM_GUST_PER REUNION_GUST REUNION_GUST_PER USA_SEAHGT USA_SEARAD_NE USA_SEARAD_SE USA_SEARAD_SW USA_SEARAD_NW STORM_SPEED STORM_DIR
1887289N14312 1887 67 NA NA NOT_NAMED 1887-10-15 12:00:00 TS 14.0000 -48.0000 70 hurdat_atl main 1107 1102 O_____________ hurdat_atl AL151887 14.0000 -48.0000 HU 70 1 11 301
1887289N14312 1887 67 NA NA NOT_NAMED 1887-10-15 15:00:00 TS 14.2927 -48.4998 main 1112 1108 P_____________ AL151887 14.2927 -48.4998 HU 72 1 11 302
1887289N14312 1887 67 NA NA NOT_NAMED 1887-10-15 18:00:00 TS 14.6000 -49.0000 75 hurdat_atl main 1121 1117 O_____________ hurdat_atl AL151887 14.6000 -49.0000 HU 75 1 12 304
1887289N14312 1887 67 NA NA NOT_NAMED 1887-10-15 21:00:00 TS 14.9349 -49.5002 main 1131 1131 P_____________ AL151887 14.9349 -49.5002 HU 77 1 12 306
1887289N14312 1887 67 NA NA NOT_NAMED 1887-10-16 00:00:00 TS 15.3000 -50.0000 80 hurdat_atl main 1148 1144 O_____________ hurdat_atl AL151887 15.3000 -50.0000 HU 80 1 12 308
1887289N14312 1887 67 NA NA NOT_NAMED 1887-10-16 03:00:00 TS 15.6849 -50.5002 main 1169 1165 P_____________ AL151887 15.6849 -50.5002 HU 82 1 13 310
1887289N14312 1887 67 NA NA NOT_NAMED 1887-10-16 06:00:00 TS 16.1000 -51.0000 85 hurdat_atl main 1194 1191 O_____________ hurdat_atl AL151887 16.1000 -51.0000 HU 85 2 13 310
1887289N14312 1887 67 NA NA NOT_NAMED 1887-10-16 09:00:00 TS 16.5049 -51.5005 main 1214 1196 P_____________ AL151887 16.5049 -51.5005 HU 87 2 13 313
1887289N14312 1887 67 NA NA NOT_NAMED 1887-10-16 12:00:00 TS 17.0000 -52.0000 90 hurdat_atl main 1200 1194 O_____________ hurdat_atl AL151887 17.0000 -52.0000 HU 90 2 15 320
1887289N14312 1887 67 NA NA NOT_NAMED 1887-10-16 15:00:00 TS 17.6700 -52.5149 main 1205 1197 P_____________ AL151887 17.6700 -52.5149 HU 90 2 17 326
1887289N14312 1887 67 NA NA NOT_NAMED 1887-10-16 18:00:00 TS 18.4000 -53.0000 90 hurdat_atl main 1218 1218 O_____________ hurdat_atl AL151887 18.4000 -53.0000 HU 90 2 17 328
1887289N14312 1887 67 NA NA NOT_NAMED 1887-10-16 21:00:00 TS 19.0649 -53.4303 main 1245 1238 P_____________ AL151887 19.0649 -53.4303 HU 90 2 15 330
1887289N14312 1887 67 NA NA NOT_NAMED 1887-10-17 00:00:00 TS 19.7000 -53.8000 90 hurdat_atl main 1248 1223 O_____________ hurdat_atl AL151887 19.7000 -53.8000 HU 90 2 14 333
1887289N14312 1887 67 NA NA NOT_NAMED 1887-10-17 03:00:00 TS 20.3148 -54.1154 main 1224 1203 P_____________ AL151887 20.3148 -54.1154 HU 90 2 13 335
1887289N14312 1887 67 NA NA NOT_NAMED 1887-10-17 06:00:00 TS 20.9000 -54.4000 90 hurdat_atl main 1205 1187 O_____________ hurdat_atl AL151887 20.9000 -54.4000 HU 90 2 13 334
1887289N14312 1887 67 NA NA NOT_NAMED 1887-10-17 09:00:00 TS 21.4725 -54.7150 main 1190 1173 P_____________ AL151887 21.4725 -54.7150 HU 87 2 12 333
1887289N14312 1887 67 NA NA NOT_NAMED 1887-10-17 12:00:00 TS 22.0000 -55.0000 85 hurdat_atl main 1176 1168 O_____________ hurdat_atl AL151887 22.0000 -55.0000 HU 85 2 11 334
1887289N14312 1887 67 NA NA NOT_NAMED 1887-10-17 15:00:00 TS 22.4724 -55.2302 main 1175 1166 P_____________ AL151887 22.4724 -55.2302 HU 82 1 10 338
1887289N14312 1887 67 NA NA NOT_NAMED 1887-10-17 18:00:00 TS 22.9000 -55.4000 80 hurdat_atl main 1173 1173 O_____________ hurdat_atl AL151887 22.9000 -55.4000 HU 80 1 9 342
1887289N14312 1887 67 NA NA NOT_NAMED 1887-10-17 21:00:00 TS 23.3150 -55.5226 main 1183 1178 P_____________ AL151887 23.3150 -55.5226 HU 75 1 8 347
1887289N14312 1887 67 NA NA NOT_NAMED 1887-10-18 00:00:00 TS 23.7000 -55.6000 70 hurdat_atl main 1194 1194 O_____________ hurdat_atl AL151887 23.7000 -55.6000 HU 70 1 7 350
1887289N14312 1887 67 NA NA NOT_NAMED 1887-10-18 03:00:00 TS 24.0425 -55.6650 main 1201 1201 P_____________ AL151887 24.0425 -55.6650 HU 65 1 7 353
1887289N14312 1887 67 NA NA NOT_NAMED 1887-10-18 06:00:00 TS 24.4000 -55.7000 60 hurdat_atl main 1224 1224 O_____________ hurdat_atl AL151887 24.4000 -55.7000 TS 60 0 8 355
1887289N14312 1887 67 NA NA NOT_NAMED 1887-10-18 09:00:00 TS 24.8200 -55.7372 main 1247 1247 P_____________ AL151887 24.8200 -55.7372 TS 57 0 9 0
1887289N14312 1887 67 NA NA NOT_NAMED 1887-10-18 12:00:00 TS 25.3000 -55.7000 55 hurdat_atl main 1279 1279 O_____________ hurdat_atl AL151887 25.3000 -55.7000 TS 55 0 10 10
1887289N14312 1887 67 NA NA NOT_NAMED 1887-10-18 15:00:00 TS 25.8275 -55.5450 main 1328 1328 P_____________ AL151887 25.8275 -55.5450 TS 52 0 12 18
1887289N14312 1887 67 NA NA NOT_NAMED 1887-10-18 18:00:00 TS 26.4000 -55.3000 50 hurdat_atl main 1384 1384 O_____________ hurdat_atl AL151887 26.4000 -55.3000 TS 50 0 12 21
1887289N14312 1887 67 NA NA NOT_NAMED 1887-10-18 21:00:00 TS 26.9773 -55.0443 main 1449 1449 P_____________ AL151887 26.9773 -55.0443 TS 47 0 13 24
1887289N14312 1887 67 NA NA NOT_NAMED 1887-10-19 00:00:00 TS 27.6000 -54.7000 45 hurdat_atl main 1515 1515 O_____________ hurdat_atl AL151887 27.6000 -54.7000 TS 45 0 15 28
1887289N14312 1887 67 NA NA NOT_NAMED 1887-10-19 03:00:00 TS 28.2849 -54.2447 main 1603 1603 P_____________ AL151887 28.2849 -54.2447 TS 42 0 17 32
1887289N14312 1887 67 NA NA NOT_NAMED 1887-10-19 06:00:00 TS 29.0000 -53.7000 40 hurdat_atl main 1691 1691 O_____________ hurdat_atl AL151887 29.0000 -53.7000 TS 40 0 17 35
1887289N14312 1887 67 NA NA NOT_NAMED 1887-10-19 09:00:00 TS 29.7074 -53.1146 main 1787 1787 P_____________ AL151887 29.7074 -53.1146 TS 37 0 17 37
1887289N14312 1887 67 NA NA NOT_NAMED 1887-10-19 12:00:00 TS 30.4000 -52.5000 35 hurdat_atl main 1804 1739 O_____________ hurdat_atl AL151887 30.4000 -52.5000 TS 35 0 17 38
1887289N14312 1887 67 NA NA NOT_NAMED 1887-10-19 15:00:00 TS 31.0604 -51.8964 main 1729 1666 P_____________ AL151887 31.0604 -51.8964 TS 30 -1 17 38
1887289N14312 1887 67 NA NA NOT_NAMED 1887-10-19 18:00:00 TS 31.7000 -51.3000 25 hurdat_atl main 1666 O_____________ hurdat_atl AL151887 31.7000 -51.3000 TD 25 -1 16 38

IBTrACS Databaseについて

本データベースは、米国NOAAが公開する1842年以降の世界の熱帯低気圧のベストトラックデータアーカイブInternational Best Track Archive for Climate Stewardship (IBTrACS)を、ウェブで閲覧しやすい形式に変換したものです。

最終更新日:2021-12-03